Coari, Brazil
Current Conditions -  °F | °C
As of 6:00 PM on Saturday 20 Dec 2014 (Local Time) from SBMY Reporting Station
Broken Clouds Broken Clouds  
Wind Chill: 79°   Ceiling: 1700
Heat Index: 82°   Visibility: 6mi
Dew Point: 75°   Wind: 5mph
Humidity: 89%   Direction: 120°ESE
Pressure: 29.77"   Gusts: NA
Location:  4.09°S, 63.14°W
Report Text: SBMY 202200Z 12004KT 9999 BKN017 26/24 Q1008
Loading
Personal Weather Stations






























Interactive Weather Map New forecast layout! Learn more

10-Day Weather Forecast

Advertisements
Track Severe Weather on mobile